createdAt,value
2023-05-19T00:00:47.524Z,12.76
2023-05-19T00:05:59.198Z,12.74
2023-05-19T00:11:02.728Z,12.75
2023-05-19T00:16:06.504Z,12.76
2023-05-19T00:21:09.933Z,12.73
2023-05-19T00:26:13.452Z,12.63
2023-05-19T00:31:18.250Z,12.56
2023-05-19T00:36:21.557Z,12.54
2023-05-19T00:41:25.039Z,12.55
2023-05-19T00:46:28.557Z,12.57
2023-05-19T00:51:32.305Z,12.56
2023-05-19T00:56:35.631Z,12.48
2023-05-19T01:01:39.559Z,12.40
2023-05-19T01:06:43.887Z,12.30
2023-05-19T01:11:47.184Z,12.23
2023-05-19T01:17:24.530Z,12.24
2023-05-19T01:23:01.837Z,12.23
2023-05-19T01:28:33.301Z,12.25
2023-05-19T01:33:40.011Z,12.18
2023-05-19T01:38:44.331Z,12.16
2023-05-19T01:43:49.205Z,12.21
2023-05-19T01:48:53.534Z,12.22
2023-05-19T01:53:56.880Z,12.25
2023-05-19T01:59:09.892Z,12.27
2023-05-19T02:04:20.409Z,12.19
2023-05-19T02:09:42.356Z,12.17
2023-05-19T02:15:01.069Z,12.17
2023-05-19T02:20:05.545Z,12.16
2023-05-19T02:25:09.824Z,12.18
2023-05-19T02:30:16.619Z,12.14
2023-05-19T02:35:21.342Z,12.13
2023-05-19T02:40:24.557Z,12.13
2023-05-19T02:45:28.926Z,12.17
2023-05-19T02:50:34.092Z,12.14
2023-05-19T02:55:37.672Z,12.10
2023-05-19T03:00:40.942Z,12.08
2023-05-19T03:05:44.262Z,12.08
2023-05-19T03:10:47.669Z,12.06
2023-05-19T03:15:51.421Z,12.06
2023-05-19T03:20:54.771Z,12.06
2023-05-19T03:25:58.532Z,12.06
2023-05-19T03:31:01.883Z,12.06
2023-05-19T03:36:10.178Z,12.10
2023-05-19T03:41:15.571Z,12.09
2023-05-19T03:46:18.984Z,12.07
2023-05-19T03:51:36.822Z,12.06
2023-05-19T03:56:47.041Z,12.10
2023-05-19T04:01:51.744Z,12.19
2023-05-19T04:06:55.356Z,12.24
2023-05-19T04:11:59.077Z,12.24
2023-05-19T04:17:02.830Z,12.23
2023-05-19T04:22:06.218Z,12.20
2023-05-19T04:27:12.294Z,12.17
2023-05-19T04:32:18.078Z,12.17
2023-05-19T04:37:22.410Z,12.15
2023-05-19T04:42:30.866Z,12.12
2023-05-19T04:47:38.943Z,12.07
2023-05-19T04:52:42.906Z,12.08
2023-05-19T04:57:47.091Z,12.04
2023-05-19T05:02:51.078Z,11.98
2023-05-19T05:07:56.537Z,11.99
2023-05-19T05:13:02.052Z,12.08
2023-05-19T05:18:07.072Z,12.08
2023-05-19T05:23:14.855Z,12.04
2023-05-19T05:28:19.174Z,12.04
2023-05-19T05:33:24.963Z,12.08
2023-05-19T05:38:28.587Z,12.12
2023-05-19T05:43:32.251Z,12.12
2023-05-19T05:48:37.667Z,12.17
2023-05-19T05:53:55.522Z,12.26
2023-05-19T05:59:03.662Z,12.34
2023-05-19T06:04:07.350Z,12.39
2023-05-19T06:09:10.709Z,12.41
2023-05-19T06:14:14.182Z,12.41
2023-05-19T06:19:30.799Z,12.53
2023-05-19T06:24:35.215Z,12.56
2023-05-19T06:29:39.688Z,12.57
2023-05-19T06:34:43.883Z,12.59
2023-05-19T06:39:47.379Z,12.65
2023-05-19T06:44:51.531Z,12.61
2023-05-19T06:49:55.676Z,12.56
2023-05-19T06:55:02.334Z,12.52
2023-05-19T07:00:14.470Z,12.55
2023-05-19T07:05:21.265Z,12.57
2023-05-19T07:10:28.805Z,12.62
2023-05-19T07:15:32.644Z,12.67
2023-05-19T07:20:36.118Z,12.65
2023-05-19T07:25:40.764Z,12.67
2023-05-19T07:30:44.363Z,12.65
2023-05-19T07:35:47.970Z,12.66
2023-05-19T07:40:51.238Z,12.75
2023-05-19T07:45:56.461Z,12.81
2023-05-19T07:51:00.026Z,12.86
2023-05-19T07:56:03.776Z,12.90
2023-05-19T08:01:06.984Z,12.96
2023-05-19T08:06:10.310Z,13.01
2023-05-19T08:11:13.730Z,12.96
2023-05-19T08:16:17.037Z,12.93
2023-05-19T08:21:20.412Z,12.95
2023-05-19T08:26:23.720Z,13.01
2023-05-19T08:31:27.318Z,12.97
2023-05-19T08:36:30.869Z,12.90
2023-05-19T08:41:34.356Z,12.94
2023-05-19T08:46:37.868Z,13.01
2023-05-19T08:52:25.517Z,13.13
2023-05-19T09:03:42.114Z,13.20
2023-05-19T09:08:52.425Z,13.28
2023-05-19T09:13:55.600Z,13.38
2023-05-19T09:19:14.604Z,13.42
2023-05-19T09:24:28.168Z,13.45
2023-05-19T09:37:28.643Z,13.56
2023-05-19T09:42:58.578Z,13.60
2023-05-19T09:49:34.738Z,13.62
2023-05-19T09:55:25.941Z,13.70
2023-05-19T10:01:43.796Z,13.80
2023-05-19T10:07:18.687Z,13.79
2023-05-19T10:12:52.952Z,13.83
2023-05-19T10:18:05.783Z,13.88
2023-05-19T10:23:09.431Z,13.94
2023-05-19T10:28:20.626Z,14.05
2023-05-19T10:33:51.610Z,14.22
2023-05-19T10:39:38.846Z,14.37
2023-05-19T10:45:18.878Z,14.51
2023-05-19T10:50:22.227Z,14.48
2023-05-19T10:56:05.054Z,14.48
2023-05-19T11:07:22.511Z,14.69
2023-05-19T11:12:46.090Z,14.75
2023-05-19T11:25:28.102Z,14.94
2023-05-19T11:31:52.720Z,15.05
2023-05-19T11:38:11.015Z,15.12
2023-05-19T11:44:35.987Z,15.14
2023-05-19T11:51:18.438Z,15.09
2023-05-19T12:03:31.489Z,15.17
2023-05-19T12:15:32.058Z,15.27
2023-05-19T12:28:08.921Z,15.37
2023-05-19T12:34:51.014Z,15.38
2023-05-19T12:52:24.588Z,15.47
2023-05-19T12:57:33.011Z,15.44
2023-05-19T13:03:09.005Z,15.44
2023-05-19T13:08:15.508Z,15.50
2023-05-19T13:13:19.619Z,15.48
2023-05-19T13:18:22.990Z,15.37
2023-05-19T13:23:26.656Z,15.32
2023-05-19T13:28:30.458Z,15.37
2023-05-19T13:33:33.746Z,15.46
2023-05-19T13:38:37.206Z,15.45
2023-05-19T13:43:40.707Z,15.43
2023-05-19T13:48:44.047Z,15.42
2023-05-19T13:53:47.537Z,15.38
2023-05-19T13:58:51.007Z,15.38
2023-05-19T14:03:54.325Z,15.36
2023-05-19T14:08:58.223Z,15.39
2023-05-19T14:14:03.682Z,15.36
2023-05-19T14:19:07.464Z,15.36
2023-05-19T14:24:11.123Z,15.38
2023-05-19T14:29:14.435Z,15.39
2023-05-19T14:34:21.127Z,15.45
2023-05-19T14:39:24.538Z,15.50
2023-05-19T14:44:33.199Z,15.49
2023-05-19T14:49:36.501Z,15.38
2023-05-19T14:54:40.203Z,15.38
2023-05-19T14:59:43.706Z,15.45
2023-05-19T15:04:47.070Z,15.51
2023-05-19T15:09:50.300Z,15.48
2023-05-19T15:15:00.824Z,15.44
2023-05-19T15:20:04.727Z,15.42
2023-05-19T15:25:09.476Z,15.37
2023-05-19T15:30:12.871Z,15.37
2023-05-19T15:35:16.333Z,15.42
2023-05-19T15:40:19.673Z,15.43
2023-05-19T15:45:23.103Z,15.38
2023-05-19T15:50:27.088Z,15.35
2023-05-19T15:55:30.652Z,15.34
2023-05-19T16:00:34.029Z,15.36
2023-05-19T16:05:37.671Z,15.38
2023-05-19T16:10:41.022Z,15.36
2023-05-19T16:15:44.170Z,15.35
2023-05-19T16:20:47.354Z,15.31
2023-05-19T16:25:51.255Z,15.38
2023-05-19T16:31:01.265Z,15.41
2023-05-19T16:36:06.590Z,15.40
2023-05-19T16:41:13.085Z,15.35
2023-05-19T16:46:16.667Z,15.32
2023-05-19T16:51:20.058Z,15.33
2023-05-19T16:56:23.288Z,15.33
2023-05-19T17:01:26.605Z,15.33
2023-05-19T17:06:30.282Z,15.27
2023-05-19T17:11:33.622Z,15.26
2023-05-19T17:16:37.383Z,15.24
2023-05-19T17:21:40.971Z,15.25
2023-05-19T17:26:44.532Z,15.28
2023-05-19T17:31:47.757Z,15.27
2023-05-19T17:36:51.336Z,15.23
2023-05-19T17:41:54.574Z,15.23
2023-05-19T17:46:58.223Z,15.21
2023-05-19T17:52:01.729Z,15.20
2023-05-19T17:57:11.706Z,15.17
2023-05-19T18:02:15.974Z,15.16
2023-05-19T18:07:20.087Z,15.16
2023-05-19T18:12:23.563Z,15.17
2023-05-19T18:17:27.060Z,15.19
2023-05-19T18:22:30.808Z,15.15
2023-05-19T18:27:33.960Z,15.11
2023-05-19T18:32:37.475Z,15.08
2023-05-19T18:37:40.778Z,15.06
2023-05-19T18:42:44.046Z,15.04
2023-05-19T18:47:47.280Z,15.01
2023-05-19T18:52:50.931Z,14.99
2023-05-19T18:57:54.618Z,14.96
2023-05-19T19:02:57.918Z,14.93
2023-05-19T19:08:01.456Z,14.88
2023-05-19T19:13:05.668Z,14.86
2023-05-19T19:18:09.005Z,14.85
2023-05-19T19:23:12.396Z,14.91
2023-05-19T19:28:15.739Z,14.85
2023-05-19T19:33:19.289Z,14.84
2023-05-19T19:38:22.674Z,14.89
2023-05-19T19:43:25.989Z,14.93
2023-05-19T19:48:29.359Z,14.90
2023-05-19T19:53:33.088Z,14.83
2023-05-19T19:58:36.326Z,14.78
2023-05-19T20:03:39.689Z,14.75
2023-05-19T20:08:42.828Z,14.79
2023-05-19T20:13:46.482Z,14.78
2023-05-19T20:18:50.723Z,14.81
2023-05-19T20:23:54.200Z,14.85
2023-05-19T20:28:57.500Z,14.87
2023-05-19T20:34:01.685Z,14.85
2023-05-19T20:39:07.231Z,14.84
2023-05-19T20:44:11.811Z,14.88
2023-05-19T20:49:15.067Z,14.93
2023-05-19T20:54:20.281Z,14.92
2023-05-19T20:59:23.970Z,14.91
2023-05-19T21:04:27.408Z,14.92
2023-05-19T21:09:30.795Z,14.98
2023-05-19T21:14:33.957Z,14.94
2023-05-19T21:19:37.609Z,14.93
2023-05-19T21:24:41.066Z,14.97
2023-05-19T21:29:44.268Z,15.01
2023-05-19T21:34:47.847Z,15.00
2023-05-19T21:39:51.711Z,14.94
2023-05-19T21:44:55.226Z,14.90
2023-05-19T21:49:58.409Z,14.89
2023-05-19T21:55:01.755Z,14.86
2023-05-19T22:00:06.699Z,14.84
2023-05-19T22:05:14.963Z,14.92
2023-05-19T22:10:18.379Z,14.99
2023-05-19T22:15:21.625Z,14.91
2023-05-19T22:20:24.988Z,14.93
2023-05-19T22:25:28.401Z,14.97
2023-05-19T22:30:38.433Z,14.91
2023-05-19T22:35:43.264Z,14.90
2023-05-19T22:40:46.545Z,14.86
2023-05-19T22:45:49.921Z,14.83
2023-05-19T22:50:53.987Z,14.79
2023-05-19T22:55:57.165Z,14.81
2023-05-19T23:01:00.627Z,14.77
2023-05-19T23:06:03.986Z,14.79
2023-05-19T23:11:07.830Z,14.81
2023-05-19T23:16:11.057Z,14.81
2023-05-19T23:21:14.642Z,14.79
2023-05-19T23:26:17.810Z,14.77
2023-05-19T23:31:21.043Z,14.78
2023-05-19T23:36:24.372Z,14.80
2023-05-19T23:41:27.581Z,14.75
2023-05-19T23:46:30.901Z,14.76
2023-05-19T23:51:34.299Z,14.72
2023-05-19T23:56:37.525Z,14.74
